Cruz Calle, Texas
Current Conditions -  °F | °C
As of 12:15 PM on Friday 28 Nov 2014 (Local Time) from KHBV Reporting Station
Clear Clear  
Wind Chill: 71°   Ceiling: Unl
Heat Index: 71°   Visibility: 10mi
Dew Point: 50°   Wind: 13mph
Humidity: 47%   Direction: 170°S
Pressure: 30.25"   Gusts: 17mph
Location:  27.5358°N, 98.3937°W
Report Text: KHBV 281815Z AUTO 17011G15KT 10SM CLR 22/10 A3025 RMK AO2 T02180101
Loading
Personal Weather Stations






























Interactive Weather Map New forecast layout! Learn more

10-Day Weather Forecast

Advertisements
Track Severe Weather on mobile